Bogue Chitto, MS (39629)

4:17 PM CDT on April 26, 2015 (GMT -0500)
Downtown (Perkins Bldg) | | Change Station
CLOSE
Current Station
Personal Weather Station
Location: Brookhaven, MS
Elevation: 473 ft
Nearby Weather Stations

Elev 473 ft 31.58 °N, 90.44 °W | Updated 4 minutes ago

Partly Cloudy
Partly Cloudy
88.7 °F
Feels Like 91 °F
N
0.0
Wind Variable Wind from North

Today
High -- | Low -- °F
--% Chance of Precip.
Yesterday
High -- | Low -- °F
Precip. -- in
6:21 AM 7:37 PM
First Quarter, 58% visible
Pressure 29.75 in
Visibility -9999.0 miles
Clouds Clear
Heat Index 91 °F
Dew Point 66 °F
Humidity 47%
Rainfall 0.00 in
Snow Depth Not available.
UV 7 out of 12
Pollen 8.70 out of 12
Air Quality Not available.
Flu Activity No Activity
METAR K1R7 262055Z AUTO 26004KT CLR 29/17 A2975 RMK AO2

More Conditions Fewer Conditions

Pressure 29.75 in
Visibility -9999.0 miles
Clouds Clear
Heat Index 91 °F
Dew Point 66 °F
Humidity 47%
Rainfall 0.00 in
Snow Depth Not available.
UV 7 out of 12
Pollen 8.70 out of 12
Air Quality Not available.
Flu Activity No Activity
METAR K1R7 262055Z AUTO 26004KT CLR 29/17 A2975 RMK AO2

More Conditions Fewer Conditions

The full scope of the disaster following a powerful 7.8-magnitude earthquake in Nepal may not come into view for days, but global charities are already sending emergency aid. Click to see how you can help.

10-Day Weather Forecast

Almanac

Astronomy

Apr. 26, 2015 Rise Set
Actual Time
Civil Twilight
Nautical Twilight
Astronomical Twilight
Moon
Length of Visible Light
Length of Day
Tomorrow will be .
, % of the Moon is Illuminated

Today's Extremes

State Highs State Lows

Community

WunderPhotos

Upload Photos

1,817,126 photos uploaded!

WunderBlogs® & News

Nearby

Air Quality

  Air Quality AQ Index Pollutant
Not available.

Snow Depth

Station Depth Elevation

Earthquake Activity

City Distance Mag. Time & Date
Minimum magnitude displayed is 2.5.

Coastal Water Temperatures

Place Temperature

Stations

Nearby Weather Stations

Station Location Temp. Windchill Dew Point Humidity Wind Precip. Elev Updated Type